Terminal Aerodrome Forecast
Issued by NWS

Home | Current Version | Previous Version | Text Only | Print | Product List | Glossary On
Versions: 1 2 3 4 5 6 7 8 9 10 11 12 13 14 15 16 17 18 19 20 21 22 23 24 25 26
527
FTUS42 KCAE 121120
TAFOGB
TAF
KOGB 121120Z 1212/1312 VRB03KT P6SM OVC060
     FM121400 05008KT P6SM OVC035
     FM122000 30006KT P6SM BKN040
     FM130000 29005KT P6SM SCT150=

USA.gov is the U.S. government's official web portal to all federal, state and local government web resources and services.